»·PEaware :: N192MW KBFL-KMHV

N192MW :: KBFL-KMHV

FLIGHT INFORMATION

Flight Status: Arrived
Operator: Privately registered:
United States
More flights under this callsign
Pilot: Luther B. (3998)
Aircraft: CESSNA 172 SKYHAWK
(C172)
More flights by this aircraft type
Origin: KBFL Meadows
United States
Destination: KMHV Mojave
United States
More flights between these airports :: More routes between these airports
Route: +
File this flight plan on PilotEdge
Remarks: CAT6
Altitude:
(Current/Filed)
0ft
Speed:
(Current/Filed)
0kts
Departed: 27-Dec-17 07:18 PM
Arrived: 27-Dec-17 07:50 PM
Distance/Time
Traveled:
1nm/0:31
Distance/Time
To Go:
Arrived

Flight Plot

Page will automatically refresh every two minutes.


Map Options




Map Legend


Flown Route
Filed Route
Departure Airport
Arrival Airport
Navaid (VOR, NDB)
Fix

Horizontal Profiles

Position Reports

Time Latitude Longitude Heading Altitude Ground
Speed
27-Dec-17 19:12 35.432875 -119.045333 137 510ft 0kts
27-Dec-17 19:13 35.432875 -119.045333 137 510ft 0kts
27-Dec-17 19:14 35.432873 -119.045235 45 510ft 2kts
27-Dec-17 19:15 35.432325 -119.045761 185 510ft 12kts
27-Dec-17 19:16 35.430714 -119.047736 238 510ft 5kts
27-Dec-17 19:17 35.429012 -119.047991 132 510ft 15kts
27-Dec-17 19:18 35.426269 -119.045305 228 510ft 2kts
27-Dec-17 19:19 35.426094 -119.045547 227 510ft 0kts
27-Dec-17 19:20 35.426091 -119.045553 227 510ft 0kts
27-Dec-17 19:21 35.426089 -119.045555 227 510ft 0kts
27-Dec-17 19:22 35.426088 -119.045557 227 510ft 0kts
27-Dec-17 19:23 35.426086 -119.045559 227 510ft 0kts
27-Dec-17 19:24 35.433587 -119.055914 316 687ft 81kts
27-Dec-17 19:25 35.449235 -119.064233 50 1673ft 68kts
27-Dec-17 19:26 35.443108 -119.039592 113 2342ft 89kts
27-Dec-17 19:27 35.431295 -119.011247 116 3035ft 95kts
27-Dec-17 19:28 35.418720 -118.982396 113 3708ft 95kts
27-Dec-17 19:29 35.406547 -118.953981 113 4368ft 93kts
27-Dec-17 19:30 35.394742 -118.926409 112 5019ft 89kts
27-Dec-17 19:31 35.383212 -118.899468 113 5530ft 98kts
27-Dec-17 19:32 35.368511 -118.865575 113 5628ft 111kts
27-Dec-17 19:33 35.355486 -118.835074 117 6199ft 92kts
27-Dec-17 19:34 35.344181 -118.808645 116 6779ft 82kts
27-Dec-17 19:35 35.334105 -118.785097 116 7343ft 72kts
27-Dec-17 19:36 35.322831 -118.759042 114 7520ft 108kts
27-Dec-17 19:37 35.307571 -118.724169 114 7473ft 115kts
27-Dec-17 19:38 35.293173 -118.690721 117 7484ft 107kts
27-Dec-17 19:39 35.279550 -118.659141 117 7556ft 108kts
27-Dec-17 19:40 35.265179 -118.626019 117 7551ft 111kts
27-Dec-17 19:41 35.250670 -118.592528 117 7551ft 111kts
27-Dec-17 19:42 35.235677 -118.558017 113 7553ft 116kts
27-Dec-17 19:43 35.220372 -118.522792 114 7552ft 117kts
27-Dec-17 19:44 35.205089 -118.487616 114 7553ft 117kts
27-Dec-17 19:45 35.190100 -118.453070 117 7553ft 112kts
27-Dec-17 19:46 35.177996 -118.425183 117 7432ft 112kts
27-Dec-17 19:47 35.160296 -118.384696 117 6832ft 116kts
27-Dec-17 19:48 35.147372 -118.355100 117 6425ft 119kts
27-Dec-17 19:49 35.130423 -118.315954 116 6276ft 90kts
27-Dec-17 19:50 35.121554 -118.294990 117 6513ft 85kts
27-Dec-17 19:51 35.107899 -118.264359 118 6105ft 116kts
27-Dec-17 19:52 35.089647 -118.223428 120 4686ft 146kts
27-Dec-17 19:53 35.073519 -118.185729 119 3938ft 98kts
27-Dec-17 19:54 35.065088 -118.155519 94 3599ft 93kts
27-Dec-17 19:55 35.063837 -118.128980 147 3369ft 66kts
27-Dec-17 19:56 35.059195 -118.143982 267 2794ft 39kts
27-Dec-17 19:57 35.059080 -118.149603 235 2794ft 3kts
27-Dec-17 19:58 35.058839 -118.149898 180 2794ft 0kts
27-Dec-17 19:59 35.058839 -118.149898 180 2794ft 0kts
27-Dec-17 20:00 35.057707 -118.149507 220 2794ft 7kts
27-Dec-17 20:01 35.056398 -118.153080 266 2794ft 0kts
27-Dec-17 20:02 35.056398 -118.153082 266 2794ft 0kts
27-Dec-17 20:03 35.056398 -118.153082 266 2794ft 0kts
27-Dec-17 20:04 35.432875 -119.045333 137 510ft 0kts
27-Dec-17 20:05 35.432875 -119.045333 137 510ft 0kts
27-Dec-17 20:06 35.432875 -119.045333 137 510ft 0kts

Navigation Log

Ident Type
1. KBFL Airport
2. KMHV Airport